Time;durP1;ratioP1;P1;durP2;ratioP2;P2;SDS_P1;SDS_P2;PMS_P1;PMS_P2;Temp;Humidity;BMP_temperature;BMP_pressure;BME280_temperature;BME280_humidity;BME280_pressure;Samples;Min_cycle;Max_cycle;Signal;HPM_P1;HPM_P2
2023/03/06 00:00:37;;;;;;;5.70;5.23;;;;;;;20.70;33.41;94414.56;6144642;28;109848;-58
2023/03/06 00:03:41;;;;;;;6.20;5.77;;;;;;;20.68;33.39;94419.41;6158587;28;109157;-58
2023/03/06 00:06:44;;;;;;;5.90;5.50;;;;;;;20.69;33.36;94431.59;6157222;28;110060;-58
2023/03/06 00:09:47;;;;;;;6.47;5.97;;;;;;;20.67;33.40;94425.78;6155229;28;110186;-58
2023/03/06 00:12:52;;;;;;;5.83;5.43;;;;;;;20.68;33.37;94422.84;6130421;28;110623;-57
2023/03/06 00:15:59;;;;;;;6.20;5.70;;;;;;;20.67;33.13;94426.59;6138319;28;109957;-59
2023/03/06 00:19:04;;;;;;;5.67;5.27;;;;;;;20.67;33.53;94425.78;6145772;28;109403;-58
2023/03/06 00:22:07;;;;;;;6.43;5.93;;;;;;;20.66;33.34;94417.03;6163065;28;109163;-59
2023/03/06 00:25:14;;;;;;;6.20;5.70;;;;;;;20.59;33.24;94403.44;6140140;28;109261;-58
2023/03/06 00:28:17;;;;;;;6.17;5.70;;;;;;;20.66;33.24;94419.69;6148091;28;109901;-58
2023/03/06 00:31:20;;;;;;;6.13;5.63;;;;;;;20.66;33.16;94417.03;6156695;28;109502;-58
2023/03/06 00:34:25;;;;;;;5.90;5.40;;;;;;;20.66;33.22;94418.91;6155683;28;110090;-57
2023/03/06 00:37:28;;;;;;;5.53;5.13;;;;;;;20.65;33.26;94417.34;6160399;28;109436;-58
2023/03/06 00:40:31;;;;;;;5.67;5.20;;;;;;;20.60;33.16;94413.75;6139195;28;109198;-58
2023/03/06 00:43:34;;;;;;;5.70;5.30;;;;;;;20.65;33.22;94427.97;6157914;28;110415;-58
2023/03/06 00:46:38;;;;;;;6.57;6.07;;;;;;;20.63;32.95;94407.81;6127960;28;109232;-58
2023/03/06 00:49:42;;;;;;;5.87;5.47;;;;;;;20.58;33.42;94407.97;6149095;28;109269;-59
2023/03/06 00:52:45;;;;;;;5.47;5.07;;;;;;;20.64;33.08;94416.56;6140638;28;110133;-58
2023/03/06 00:55:49;;;;;;;5.87;5.40;;;;;;;20.65;32.95;94404.06;6154843;28;109128;-58
2023/03/06 00:58:53;;;;;;;5.60;5.20;;;;;;;20.65;33.05;94412.03;6147367;28;109429;-58
2023/03/06 01:01:56;;;;;;;6.23;5.83;;;;;;;20.61;32.93;94409.22;6158969;28;109896;-60
2023/03/06 01:05:00;;;;;;;5.43;5.03;;;;;;;20.61;32.98;94406.56;6161411;28;108832;-59
2023/03/06 01:08:04;;;;;;;5.53;5.03;;;;;;;20.64;32.93;94411.25;6151916;28;109400;-59
2023/03/06 01:11:07;;;;;;;5.60;5.20;;;;;;;20.60;32.98;94405.78;6149274;28;110322;-59
2023/03/06 01:14:10;;;;;;;5.67;5.23;;;;;;;20.62;32.95;94405.47;6157977;28;110206;-60
2023/03/06 01:17:14;;;;;;;5.97;5.47;;;;;;;20.62;32.95;94406.25;6144942;28;109374;-59
2023/03/06 01:20:19;;;;;;;5.63;5.23;;;;;;;20.61;33.00;94402.03;6135989;28;109474;-59
2023/03/06 01:23:22;;;;;;;5.33;4.93;;;;;;;20.60;32.87;94407.66;6154970;28;109139;-59
2023/03/06 01:26:25;;;;;;;6.13;5.67;;;;;;;20.61;33.10;94403.91;6156695;28;110002;-59
2023/03/06 01:29:28;;;;;;;5.63;5.23;;;;;;;20.60;32.77;94416.41;6152541;28;109258;-59
2023/03/06 01:32:32;;;;;;;5.63;5.23;;;;;;;20.61;32.83;94409.22;6149459;28;109960;-59
2023/03/06 01:35:37;;;;;;;4.90;4.50;;;;;;;20.61;32.91;94409.22;6156408;28;110181;-60
2023/03/06 01:38:41;;;;;;;5.97;5.50;;;;;;;20.59;32.64;94400.78;6159788;28;110247;-60
2023/03/06 01:41:44;;;;;;;5.40;4.90;;;;;;;20.60;33.25;94397.81;6140774;28;111355;-59
2023/03/06 01:45:01;;;;;;;5.40;5.00;;;;;;;20.59;32.71;94404.22;6150613;28;109193;-60
2023/03/06 01:48:04;;;;;;;5.90;5.40;;;;;;;20.60;32.96;94402.34;6144283;28;109048;-59
2023/03/06 01:51:09;;;;;;;5.23;4.83;;;;;;;20.31;32.82;94366.50;6152799;28;108897;-59
2023/03/06 01:54:15;;;;;;;5.63;5.23;;;;;;;20.52;32.67;94395.16;6146214;28;109270;-58
2023/03/06 01:57:22;;;;;;;5.00;4.60;;;;;;;20.58;32.78;94396.56;6157256;28;109089;-59
2023/03/06 02:00:26;;;;;;;5.07;4.70;;;;;;;20.55;32.61;94397.19;6152081;28;109324;-60
2023/03/06 02:03:32;;;;;;;5.70;5.30;;;;;;;20.56;32.79;94399.53;6160365;28;108982;-59
2023/03/06 02:06:41;;;;;;;5.90;5.40;;;;;;;20.58;32.44;94396.56;6149924;28;110888;-59
2023/03/06 02:09:45;;;;;;;5.10;4.80;;;;;;;20.58;32.61;94407.19;6152839;28;109043;-58
2023/03/06 02:12:49;;;;;;;5.70;5.20;;;;;;;20.57;32.53;94410.94;6160682;28;109291;-59
2023/03/06 02:15:52;;;;;;;6.13;5.63;;;;;;;20.56;32.51;94404.84;6160123;28;110215;-60
2023/03/06 02:18:56;;;;;;;5.67;5.27;;;;;;;20.55;32.72;94405.16;6138352;28;110578;-59
2023/03/06 02:22:01;;;;;;;5.60;5.20;;;;;;;20.54;32.65;94404.38;6159864;28;109288;-59
2023/03/06 02:25:09;;;;;;;5.23;4.83;;;;;;;20.51;32.54;94404.22;6142350;28;109869;-58
2023/03/06 02:28:17;;;;;;;5.60;5.20;;;;;;;20.54;32.71;94408.91;6144297;28;109238;-59
2023/03/06 02:31:23;;;;;;;5.47;5.07;;;;;;;20.54;32.54;94416.88;6143783;28;109236;-60
2023/03/06 02:34:59;;;;;;;5.20;4.80;;;;;;;20.54;32.43;94422.19;6160487;28;110073;-59
2023/03/06 02:38:06;;;;;;;6.03;5.53;;;;;;;20.53;32.24;94423.28;6155077;28;111580;-59
2023/03/06 02:41:10;;;;;;;5.80;5.40;;;;;;;20.53;32.28;94428.63;6144299;28;110901;-58
2023/03/06 02:44:14;;;;;;;5.60;5.20;;;;;;;20.53;32.27;94425.97;6156978;28;109391;-59
2023/03/06 02:47:17;;;;;;;6.03;5.53;;;;;;;20.52;32.11;94424.38;6156164;28;109819;-59
2023/03/06 02:50:20;;;;;;;6.37;5.87;;;;;;;20.41;32.11;94417.78;6147260;28;110302;-59
2023/03/06 02:53:26;;;;;;;5.53;5.13;;;;;;;20.51;32.28;94428.16;6140606;28;109659;-58
2023/03/06 02:56:32;;;;;;;6.00;5.57;;;;;;;20.48;31.86;94428.75;6158817;28;109155;-58
2023/03/06 02:59:36;;;;;;;5.67;5.17;;;;;;;20.46;32.25;94433.59;6153025;28;110875;-59
2023/03/06 03:02:39;;;;;;;5.30;4.90;;;;;;;20.51;32.09;94430.81;6144867;28;109362;-59
2023/03/06 03:05:43;;;;;;;5.53;5.13;;;;;;;20.50;32.13;94438.00;6146664;28;109329;-60
2023/03/06 03:08:46;;;;;;;5.50;5.00;;;;;;;20.49;31.91;94438.28;6151228;28;109058;-60
2023/03/06 03:11:49;;;;;;;5.07;4.67;;;;;;;20.49;31.83;94433.75;6158266;28;110266;-60
2023/03/06 03:14:53;;;;;;;5.90;5.40;;;;;;;20.49;32.08;94432.97;6141752;28;110792;-60
2023/03/06 03:17:56;;;;;;;5.87;5.43;;;;;;;20.48;31.94;94436.72;6148571;28;110208;-59
2023/03/06 03:21:00;;;;;;;5.60;5.10;;;;;;;20.45;31.92;94426.72;6157240;28;109389;-59
2023/03/06 03:24:03;;;;;;;5.80;5.30;;;;;;;20.45;31.90;94434.69;6155989;28;109281;-59
2023/03/06 03:27:06;;;;;;;5.33;4.93;;;;;;;20.46;32.03;94433.59;6137730;28;111272;-58
2023/03/06 03:30:12;;;;;;;6.27;5.80;;;;;;;20.46;31.91;94444.22;6152766;28;109088;-59
2023/03/06 03:33:15;;;;;;;5.47;4.97;;;;;;;20.46;31.76;94439.69;6146970;28;109132;-59
2023/03/06 03:36:19;;;;;;;6.20;5.70;;;;;;;20.45;31.90;94440.00;6129015;28;109689;-58
2023/03/06 03:39:22;;;;;;;6.77;6.17;;;;;;;20.42;31.81;94435.31;6150268;28;110179;-60
2023/03/06 03:42:25;;;;;;;5.67;5.20;;;;;;;20.45;31.78;94438.13;6161798;28;108998;-60
2023/03/06 03:45:29;;;;;;;5.60;5.10;;;;;;;20.45;31.75;94450.63;6158643;28;109672;-59
2023/03/06 03:48:33;;;;;;;5.97;5.47;;;;;;;20.45;31.80;94446.09;6148677;28;110035;-60
2023/03/06 03:51:36;;;;;;;5.30;4.90;;;;;;;20.44;31.94;94452.50;6160276;28;109387;-59
2023/03/06 03:54:39;;;;;;;5.10;4.70;;;;;;;20.44;31.85;94452.50;6155141;28;109844;-60
2023/03/06 03:57:42;;;;;;;6.30;5.80;;;;;;;20.44;31.63;94447.19;6149004;28;109225;-59
2023/03/06 04:00:47;;;;;;;5.37;4.97;;;;;;;20.42;31.80;94443.28;6145372;28;109809;-59
2023/03/06 04:03:50;;;;;;;5.03;4.63;;;;;;;20.44;31.89;94462.34;6158178;28;108965;-59
2023/03/06 04:06:53;;;;;;;5.77;5.37;;;;;;;20.44;31.80;94459.69;6160806;28;109147;-58
2023/03/06 04:09:56;;;;;;;6.27;5.80;;;;;;;20.44;31.82;94462.34;6152408;28;110277;-59
2023/03/06 04:12:59;;;;;;;5.87;5.37;;;;;;;20.44;31.71;94460.47;6157287;28;110255;-59
2023/03/06 04:16:04;;;;;;;5.80;5.30;;;;;;;20.42;31.64;94460.00;6154935;28;109005;-59
2023/03/06 04:19:07;;;;;;;6.40;5.90;;;;;;;20.41;31.71;94461.09;6146446;28;109996;-59
2023/03/06 04:22:10;;;;;;;5.67;5.23;;;;;;;20.42;31.57;94462.66;6150647;28;109357;-58
2023/03/06 04:25:14;;;;;;;5.80;5.40;;;;;;;20.43;31.54;94468.75;6156077;28;110307;-60
2023/03/06 04:28:17;;;;;;;8.70;7.90;;;;;;;20.43;32.40;94448.28;6146927;28;109882;-61
2023/03/06 04:31:22;;;;;;;10.33;9.43;;;;;;;20.56;32.92;94463.31;6161336;28;110099;-61
2023/03/06 04:34:25;;;;;;;11.60;10.63;;;;;;;20.58;33.06;94469.09;6141605;28;109043;-60
2023/03/06 04:37:28;;;;;;;10.67;9.80;;;;;;;20.60;33.38;94474.13;6157777;28;109298;-60
2023/03/06 04:40:33;;;;;;;10.30;9.50;;;;;;;20.61;32.97;94475.69;6155289;28;108845;-60
2023/03/06 04:43:38;;;;;;;10.30;9.50;;;;;;;20.64;32.96;94485.69;6154899;28;109571;-61
2023/03/06 04:46:42;;;;;;;11.20;10.30;;;;;;;20.63;33.32;94478.81;6146429;28;109483;-60
2023/03/06 04:49:45;;;;;;;10.40;9.40;;;;;;;20.59;33.35;94480.53;6139852;28;109332;-61
2023/03/06 04:52:49;;;;;;;10.87;9.77;;;;;;;20.60;33.25;94476.78;6150087;28;110386;-61
2023/03/06 04:55:52;;;;;;;10.07;9.07;;;;;;;20.61;33.12;94484.44;6133774;28;109294;-61
2023/03/06 04:58:55;;;;;;;9.77;8.90;;;;;;;20.59;33.33;94467.22;6145548;28;110045;-60
2023/03/06 05:01:59;;;;;;;9.77;8.87;;;;;;;20.58;33.42;94476.31;6161668;28;109219;-62
2023/03/06 05:05:04;;;;;;;10.37;9.03;;;;;;;20.58;33.08;94481.63;6162256;28;109090;-60
2023/03/06 05:08:07;;;;;;;9.50;8.63;;;;;;;20.55;33.12;94480.38;6138751;28;110082;-60
2023/03/06 05:11:10;;;;;;;12.60;9.90;;;;;;;20.66;33.37;94483.50;6150621;28;110719;-61
2023/03/06 05:14:13;;;;;;;10.17;9.07;;;;;;;20.70;33.55;94476.50;6161426;28;108811;-61
2023/03/06 05:17:17;;;;;;;10.13;8.90;;;;;;;20.75;33.86;94479.00;6159821;28;109284;-61
2023/03/06 05:20:21;;;;;;;9.53;8.63;;;;;;;20.67;33.75;94490.41;6150693;28;109281;-60
2023/03/06 05:23:24;;;;;;;9.20;8.30;;;;;;;20.63;33.56;94489.44;6161626;28;109434;-61
2023/03/06 05:26:27;;;;;;;9.50;8.50;;;;;;;20.63;33.82;94492.09;6162276;28;109233;-61
2023/03/06 05:29:30;;;;;;;8.63;7.80;;;;;;;20.59;33.54;94488.50;6156631;28;109079;-61
2023/03/06 05:32:35;;;;;;;9.97;8.43;;;;;;;20.58;33.57;94497.56;6136452;28;110878;-61
2023/03/06 05:35:38;;;;;;;9.07;8.23;;;;;;;20.58;33.84;94492.25;6137988;28;109043;-61
2023/03/06 05:38:41;;;;;;;9.40;8.30;;;;;;;20.57;33.70;94499.44;6137881;28;109089;-60
2023/03/06 05:41:44;;;;;;;9.07;8.17;;;;;;;20.57;33.80;94496.00;6126843;28;109248;-61
2023/03/06 05:44:47;;;;;;;8.17;7.57;;;;;;;20.56;33.51;94495.22;6137791;28;109025;-60
2023/03/06 05:47:52;;;;;;;8.67;7.87;;;;;;;20.57;33.45;94501.31;6137502;28;109375;-61
2023/03/06 05:50:56;;;;;;;8.63;7.83;;;;;;;20.46;33.38;94482.19;6137632;28;109117;-61
2023/03/06 05:53:59;;;;;;;12.03;9.03;;;;;;;20.55;33.53;94492.88;6126710;28;111242;-60
2023/03/06 05:57:03;;;;;;;9.60;8.70;;;;;;;20.47;33.41;94478.44;6137608;28;109249;-62
2023/03/06 06:00:08;;;;;;;9.07;8.27;;;;;;;20.56;33.53;94497.09;6137603;28;109134;-61
2023/03/06 06:03:13;;;;;;;9.80;8.87;;;;;;;20.55;33.77;94498.19;6132085;28;109614;-61
2023/03/06 06:06:16;;;;;;;11.00;10.10;;;;;;;20.57;33.49;94506.63;6132537;28;109046;-61
2023/03/06 06:09:19;;;;;;;10.10;9.20;;;;;;;20.59;33.48;94518.53;6137383;28;109230;-61
2023/03/06 06:12:22;;;;;;;10.07;9.17;;;;;;;20.61;33.61;94518.22;6137694;28;110166;-60
2023/03/06 06:15:27;;;;;;;11.07;10.00;;;;;;;20.67;33.42;94522.31;6126346;28;109385;-60
2023/03/06 06:18:32;;;;;;;11.07;10.10;;;;;;;20.72;33.40;94522.16;6137078;28;109216;-61
2023/03/06 06:21:35;;;;;;;12.60;11.47;;;;;;;20.78;33.32;94528.09;6136959;28;109070;-61
2023/03/06 06:24:38;;;;;;;10.93;10.03;;;;;;;20.83;33.21;94531.41;6136376;28;110185;-60
2023/03/06 06:27:42;;;;;;;11.53;10.33;;;;;;;20.88;33.06;94525.94;6125509;28;109114;-60
2023/03/06 06:30:45;;;;;;;11.57;10.40;;;;;;;20.89;33.08;94527.50;6137067;28;109106;-61
2023/03/06 06:33:49;;;;;;;11.20;10.20;;;;;;;21.07;32.95;94530.22;6137082;28;110038;-62
2023/03/06 06:36:53;;;;;;;12.10;10.90;;;;;;;21.11;32.84;94536.47;6136906;28;110209;-61
2023/03/06 06:39:56;;;;;;;11.57;10.57;;;;;;;21.15;32.75;94540.09;6125959;28;109653;-61
2023/03/06 06:42:59;;;;;;;12.30;11.00;;;;;;;21.18;32.86;94526.19;6136634;28;109181;-61
2023/03/06 06:46:02;;;;;;;12.90;11.60;;;;;;;21.20;32.89;94526.66;6136912;28;110094;-60
2023/03/06 06:49:27;;;;;;;12.00;10.90;;;;;;;21.31;33.00;94541.19;6126018;28;111011;-60
2023/03/06 06:52:30;;;;;;;12.30;11.10;;;;;;;21.37;32.71;94545.28;6136243;28;109319;-61
2023/03/06 06:55:33;;;;;;;13.50;12.30;;;;;;;21.43;32.20;94552.00;6135384;28;109039;-61
2023/03/06 06:58:36;;;;;;;12.37;11.23;;;;;;;21.38;32.33;94530.88;6136505;28;110678;-62
2023/03/06 07:01:39;;;;;;;12.50;11.30;;;;;;;21.52;32.54;94542.16;6125448;28;109436;-61
2023/03/06 07:04:45;;;;;;;13.17;11.97;;;;;;;21.50;32.10;94538.22;6136036;28;110390;-61
2023/03/06 07:08:05;;;;;;;13.10;11.80;;;;;;;21.61;32.30;94557.31;6140401;28;110231;-61
2023/03/06 07:11:11;;;;;;;13.53;12.23;;;;;;;21.64;32.10;94546.03;6140996;28;110039;-61
2023/03/06 07:14:15;;;;;;;12.57;11.47;;;;;;;21.67;32.25;94543.53;6130634;28;108759;-62
2023/03/06 07:17:18;;;;;;;11.70;10.67;;;;;;;21.71;31.94;94535.72;6140540;28;110059;-61
2023/03/06 07:20:23;;;;;;;12.70;11.60;;;;;;;21.70;31.87;94532.28;6140574;28;109369;-61
2023/03/06 07:23:26;;;;;;;11.57;10.47;;;;;;;21.75;31.75;94541.97;6129332;28;110531;-61
2023/03/06 07:26:29;;;;;;;12.27;11.07;;;;;;;21.82;31.71;94555.63;6139079;28;109165;-61
2023/03/06 07:29:36;;;;;;;12.17;11.07;;;;;;;21.84;32.06;94548.09;6140217;28;109236;-61
2023/03/06 07:32:39;;;;;;;12.60;11.43;;;;;;;21.87;31.62;94550.13;6140247;28;109037;-61
2023/03/06 07:35:44;;;;;;;11.30;10.30;;;;;;;21.91;31.93;94545.75;6129522;28;110844;-61
2023/03/06 07:38:47;;;;;;;12.37;11.17;;;;;;;21.93;31.91;94548.88;6140136;28;109289;-61
2023/03/06 07:41:52;;;;;;;14.03;11.00;;;;;;;21.95;31.57;94545.88;6139779;28;109243;-60
2023/03/06 07:44:55;;;;;;;10.60;9.57;;;;;;;21.98;31.85;94554.03;6140280;28;110201;-62
2023/03/06 07:47:58;;;;;;;11.50;10.50;;;;;;;22.00;31.50;94551.81;6129181;28;108920;-61
2023/03/06 07:51:05;;;;;;;11.00;10.00;;;;;;;22.01;31.64;94556.06;6139613;28;109133;-62
2023/03/06 07:54:08;;;;;;;11.47;10.37;;;;;;;21.98;31.36;94553.25;6140112;28;108980;-61
2023/03/06 07:57:13;;;;;;;10.90;9.90;;;;;;;22.05;31.64;94558.88;6133788;28;110990;-62
2023/03/06 08:00:17;;;;;;;11.53;10.43;;;;;;;22.06;31.29;94558.56;6134753;28;109221;-62
2023/03/06 08:03:20;;;;;;;10.30;9.40;;;;;;;22.06;31.20;94553.22;6139105;28;109266;-61
2023/03/06 08:06:27;;;;;;;10.60;9.70;;;;;;;22.07;31.31;94557.47;6139883;28;110264;-61
2023/03/06 08:09:30;;;;;;;10.93;9.97;;;;;;;22.08;31.15;94561.69;6129171;28;109808;-61
2023/03/06 08:12:33;;;;;;;10.97;9.97;;;;;;;22.07;31.36;94552.13;6139683;28;110302;-60
2023/03/06 08:15:36;;;;;;;10.60;9.70;;;;;;;22.07;31.00;94557.47;6139489;28;110356;-61
2023/03/06 08:18:39;;;;;;;10.27;9.17;;;;;;;22.05;31.04;94550.88;6138490;28;109191;-61
2023/03/06 08:21:44;;;;;;;10.40;9.37;;;;;;;22.13;30.98;94549.28;6127925;28;110093;-61
2023/03/06 08:24:47;;;;;;;9.43;8.53;;;;;;;22.18;31.01;94552.59;6139349;28;110085;-60
2023/03/06 08:27:50;;;;;;;10.80;9.73;;;;;;;22.24;31.77;94555.84;6138685;28;109101;-62
2023/03/06 08:30:53;;;;;;;10.73;9.67;;;;;;;22.18;31.94;94551.78;6134478;28;109282;-62
2023/03/06 08:33:58;;;;;;;9.67;8.67;;;;;;;22.22;32.25;94542.06;6133397;28;110234;-62
2023/03/06 08:37:03;;;;;;;9.93;9.03;;;;;;;22.22;31.44;94550.06;6138766;28;109032;-61
2023/03/06 08:40:07;;;;;;;10.10;9.10;;;;;;;22.20;31.95;94545.06;6139298;28;109270;-62
2023/03/06 08:43:11;;;;;;;10.00;9.20;;;;;;;22.17;32.18;94536.88;6129418;28;109618;-62
2023/03/06 08:46:17;;;;;;;10.37;9.47;;;;;;;22.22;31.77;94548.19;6138792;28;109263;-62
2023/03/06 08:49:21;;;;;;;9.23;8.33;;;;;;;22.13;32.12;94535.97;6139062;28;108885;-61
2023/03/06 08:52:25;;;;;;;9.37;8.47;;;;;;;22.21;31.73;94548.50;6138922;28;110116;-61
2023/03/06 08:55:29;;;;;;;9.93;9.17;;;;;;;22.19;31.76;94559.47;6127530;28;109232;-62
2023/03/06 08:58:32;;;;;;;9.60;7.83;;;;;;;22.19;31.55;94542.72;6137928;28;109369;-61
2023/03/06 09:01:37;;;;;;;9.60;8.73;;;;;;;22.19;32.13;94540.03;6138815;28;110623;-61
2023/03/06 09:04:40;;;;;;;8.53;7.83;;;;;;;22.09;32.18;94538.50;6137814;28;109144;-61
2023/03/06 09:07:45;;;;;;;8.70;7.70;;;;;;;22.09;32.24;94544.59;6127131;28;109119;-61
2023/03/06 09:10:48;;;;;;;8.70;7.90;;;;;;;22.08;32.23;94539.59;6138215;28;109429;-62
2023/03/06 09:13:52;;;;;;;8.43;7.63;;;;;;;22.00;31.84;94527.84;6138583;28;110426;-61
2023/03/06 09:16:55;;;;;;;8.27;7.57;;;;;;;22.04;32.28;94547.44;6129420;28;109152;-61
2023/03/06 09:19:58;;;;;;;8.40;7.70;;;;;;;22.03;31.70;94550.44;6138302;28;110162;-61
2023/03/06 09:23:03;;;;;;;7.90;7.20;;;;;;;22.07;31.59;94549.47;6138546;28;108837;-59
2023/03/06 09:26:07;;;;;;;7.70;7.00;;;;;;;22.12;31.46;94537.84;6138294;28;109160;-59
2023/03/06 09:29:11;;;;;;;8.23;7.53;;;;;;;22.16;31.39;94538.00;6125717;28;109157;-59
2023/03/06 09:32:14;;;;;;;7.67;6.97;;;;;;;22.18;31.70;94536.59;6138385;28;109048;-59
2023/03/06 09:35:17;;;;;;;7.83;7.23;;;;;;;22.16;31.39;94530.00;6137847;28;109605;-59
2023/03/06 09:38:24;;;;;;;8.20;7.47;;;;;;;22.11;31.48;94505.09;6137986;28;108965;-59
2023/03/06 09:41:31;;;;;;;7.33;6.73;;;;;;;22.19;31.43;94532.81;6127180;28;110115;-60
2023/03/06 09:44:37;;;;;;;7.23;6.63;;;;;;;22.19;31.62;94535.50;6137689;28;109208;-59
2023/03/06 09:47:50;;;;;;;7.57;6.87;;;;;;;22.20;31.18;94528.28;6137524;28;109182;-60
2023/03/06 09:51:02;;;;;;;7.60;6.93;;;;;;;22.22;31.64;94542.06;6131653;28;109306;-59
2023/03/06 09:54:12;;;;;;;6.90;6.30;;;;;;;22.18;31.36;94522.47;6136772;28;109101;-59
2023/03/06 09:57:21;;;;;;;7.43;6.77;;;;;;;22.23;31.60;94516.97;6137328;28;109567;-60
2023/03/06 10:00:28;;;;;;;7.03;6.43;;;;;;;22.21;31.28;94511.97;6136731;28;109609;-60
2023/03/06 10:03:38;;;;;;;7.00;6.30;;;;;;;22.26;31.32;94517.13;6125250;28;109521;-60
2023/03/06 10:06:47;;;;;;;7.17;6.57;;;;;;;22.27;31.35;94505.34;6137505;28;109075;-60
2023/03/06 10:09:57;;;;;;;6.23;5.73;;;;;;;22.27;31.74;94508.03;6137702;28;109987;-59
2023/03/06 10:13:05;;;;;;;6.33;5.83;;;;;;;22.28;31.39;94506.91;6134277;28;109087;-60
2023/03/06 10:16:22;;;;;;;6.73;6.17;;;;;;;22.27;31.73;94502.69;6131092;28;110226;-59
2023/03/06 10:19:33;;;;;;;7.10;6.50;;;;;;;22.28;31.32;94492.81;6137246;28;109082;-59
2023/03/06 10:22:39;;;;;;;6.40;5.90;;;;;;;22.26;31.30;94489.69;6137541;28;108889;-59
2023/03/06 10:25:53;;;;;;;6.87;6.27;;;;;;;22.28;31.74;94492.81;6126389;28;110777;-59
2023/03/06 10:29:16;;;;;;;6.10;5.60;;;;;;;22.28;31.49;94490.91;6137323;28;109945;-60
2023/03/06 10:32:27;;;;;;;6.20;5.63;;;;;;;22.24;31.49;94475.91;6136286;28;110076;-59
2023/03/06 10:35:47;;;;;;;6.30;5.80;;;;;;;22.27;31.24;94480.59;6134642;28;109121;-58
2023/03/06 10:38:50;;;;;;;6.70;6.10;;;;;;;22.28;31.79;94479.47;6129976;28;109048;-59
2023/03/06 10:41:55;;;;;;;6.23;5.73;;;;;;;22.24;31.31;94475.91;6136082;28;110372;-58
2023/03/06 10:45:10;;;;;;;6.17;5.67;;;;;;;22.18;31.62;94471.81;6136877;28;110136;-61
2023/03/06 10:48:19;;;;;;;5.90;5.50;;;;;;;22.16;31.36;94458.03;6126330;28;111133;-59
2023/03/06 10:51:24;;;;;;;6.43;5.93;;;;;;;22.04;31.77;94440.88;6136951;28;110235;-59
2023/03/06 10:54:28;;;;;;;6.50;5.90;;;;;;;22.13;31.74;94456.81;6136779;28;108847;-59
2023/03/06 10:57:33;;;;;;;5.70;5.20;;;;;;;22.11;31.47;94451.00;6136677;28;110213;-59
2023/03/06 11:00:36;;;;;;;6.03;5.43;;;;;;;22.10;31.70;94442.25;6125968;28;111080;-59
2023/03/06 11:03:39;;;;;;;6.17;5.67;;;;;;;22.10;31.52;94444.91;6135077;28;109259;-59
2023/03/06 11:06:43;;;;;;;5.53;5.13;;;;;;;22.04;31.87;94421.44;6136427;28;109382;-60
2023/03/06 11:10:01;;;;;;;5.80;5.40;;;;;;;22.08;31.53;94427.69;6134047;28;110270;-59
2023/03/06 11:13:19;;;;;;;5.87;5.37;;;;;;;22.06;32.04;94428.00;6130238;28;109228;-59
2023/03/06 11:16:26;;;;;;;5.70;5.20;;;;;;;22.02;32.04;94420.97;6136575;28;110206;-59
2023/03/06 11:19:31;;;;;;;6.10;5.60;;;;;;;21.98;31.81;94415.47;6136135;28;109168;-60
2023/03/06 11:22:36;;;;;;;5.47;5.07;;;;;;;21.95;32.03;94407.34;6125707;28;110192;-61
2023/03/06 11:25:43;;;;;;;6.27;5.67;;;;;;;21.91;32.14;94412.53;6136567;28;110464;-58
2023/03/06 11:28:55;;;;;;;5.40;5.00;;;;;;;21.86;32.01;94402.06;6136328;28;109186;-59
2023/03/06 11:32:04;;;;;;;5.30;4.90;;;;;;;21.83;32.05;94402.69;6136066;28;109052;-59
2023/03/06 11:35:13;;;;;;;5.10;4.70;;;;;;;21.81;31.91;94399.53;6123986;28;110186;-59
2023/03/06 11:38:22;;;;;;;5.20;4.80;;;;;;;21.80;32.10;94390.00;6135721;28;109292;-59
2023/03/06 11:41:33;;;;;;;5.37;4.87;;;;;;;21.77;32.46;94383.44;6135900;28;109331;-60
2023/03/06 11:44:53;;;;;;;4.90;4.50;;;;;;;21.68;32.58;94363.28;6125647;28;109245;-58
2023/03/06 11:48:03;;;;;;;5.70;5.13;;;;;;;21.81;32.19;94363.03;6136084;28;110193;-59
2023/03/06 11:51:14;;;;;;;5.63;5.13;;;;;;;21.81;32.52;94362.25;6135858;28;108856;-59
2023/03/06 11:54:17;;;;;;;5.23;4.83;;;;;;;21.81;32.04;94359.59;6139558;28;109306;-59
2023/03/06 11:57:24;;;;;;;5.07;4.67;;;;;;;21.80;32.25;94352.69;6129338;28;110705;-59
2023/03/06 12:00:42;;;;;;;5.10;4.70;;;;;;;21.79;32.43;94348.47;6139770;28;109140;-59
2023/03/06 12:04:07;;;;;;;5.10;4.60;;;;;;;21.78;32.21;94346.91;6138920;28;109272;-59
2023/03/06 12:07:21;;;;;;;4.80;4.40;;;;;;;21.76;32.59;94349.13;6133143;28;109921;-59
2023/03/06 12:10:31;;;;;;;5.33;4.83;;;;;;;21.71;32.59;94334.13;6138869;28;109666;-59
2023/03/06 12:13:50;;;;;;;5.00;4.60;;;;;;;21.73;32.58;94339.91;6139672;28;108959;-59
2023/03/06 12:17:05;;;;;;;5.00;4.57;;;;;;;21.72;32.42;94329.56;6136109;28;109673;-59
2023/03/06 12:20:23;;;;;;;4.43;4.13;;;;;;;21.70;32.68;94332.56;6127959;28;109380;-59
2023/03/06 12:23:45;;;;;;;5.17;4.77;;;;;;;21.70;32.57;94334.44;6139344;28;109339;-60
2023/03/06 12:27:12;;;;;;;4.90;4.50;;;;;;;21.70;32.33;94318.47;6139237;28;109372;-59
2023/03/06 12:30:34;;;;;;;4.40;4.10;;;;;;;21.66;32.54;94317.53;6128677;28;109702;-60
2023/03/06 12:33:49;;;;;;;4.90;4.50;;;;;;;21.68;32.67;94323.34;6139036;28;109635;-59
2023/03/06 12:37:04;;;;;;;5.23;4.73;;;;;;;21.69;32.59;94322.22;6139211;28;109157;-59
2023/03/06 12:40:26;;;;;;;4.70;4.30;;;;;;;21.67;32.70;94321.75;6138249;28;109259;-59
2023/03/06 12:44:03;;;;;;;4.93;4.53;;;;;;;21.65;32.67;94321.28;6128660;28;109290;-59
2023/03/06 12:47:11;;;;;;;4.70;4.30;;;;;;;21.64;32.82;94314.41;6139251;28;110262;-60
2023/03/06 12:50:24;;;;;;;5.00;4.60;;;;;;;21.61;32.48;94310.50;6138932;28;109098;-59
2023/03/06 12:53:30;;;;;;;5.50;5.10;;;;;;;21.60;32.50;94314.25;6127413;28;109602;-59
2023/03/06 12:56:35;;;;;;;4.80;4.40;;;;;;;21.67;32.46;94311.88;6138880;28;109147;-59
2023/03/06 12:59:46;;;;;;;4.30;4.00;;;;;;;21.67;32.99;94297.78;6138334;28;109298;-59
2023/03/06 13:03:06;;;;;;;4.60;4.20;;;;;;;21.73;32.58;94296.50;6138900;28;109102;-59
2023/03/06 13:06:41;;;;;;;4.87;4.47;;;;;;;21.71;32.86;94298.72;6126683;28;109422;-59
2023/03/06 13:10:08;;;;;;;4.53;4.13;;;;;;;21.66;32.88;94288.22;6138970;28;109044;-59
2023/03/06 13:13:31;;;;;;;4.60;4.20;;;;;;;21.63;32.95;94276.34;6137940;28;109354;-60
2023/03/06 13:16:35;;;;;;;4.37;3.97;;;;;;;21.61;32.64;94283.09;6127347;28;109295;-59
2023/03/06 13:19:38;;;;;;;4.90;4.50;;;;;;;21.61;32.63;94283.88;6138710;28;109577;-59
2023/03/06 13:22:44;;;;;;;4.67;4.27;;;;;;;21.60;33.06;94277.00;6138486;28;110079;-59
2023/03/06 13:25:50;;;;;;;4.60;4.20;;;;;;;21.60;33.08;94282.31;6138269;28;109277;-59
2023/03/06 13:28:56;;;;;;;4.50;4.10;;;;;;;21.59;32.50;94275.44;6127185;28;111829;-59
2023/03/06 13:32:07;;;;;;;4.47;4.17;;;;;;;21.60;32.71;94279.66;6138154;28;109441;-60
2023/03/06 13:35:46;;;;;;;4.57;4.17;;;;;;;21.60;33.11;94279.66;6138256;28;109055;-60
2023/03/06 13:39:07;;;;;;;4.67;4.27;;;;;;;21.58;32.98;94278.41;6122924;28;110832;-58
2023/03/06 13:42:26;;;;;;;4.70;4.33;;;;;;;21.59;33.04;94274.66;6137860;28;109045;-59
2023/03/06 13:45:37;;;;;;;4.80;4.40;;;;;;;21.51;32.95;94252.31;6137099;28;109222;-59
2023/03/06 13:48:40;;;;;;;4.47;4.17;;;;;;;21.56;32.63;94262.75;6137977;28;109597;-59
2023/03/06 13:52:04;;;;;;;5.73;4.30;;;;;;;21.54;33.19;94256.97;6129653;28;109358;-59
2023/03/06 13:55:24;;;;;;;4.60;4.20;;;;;;;21.56;33.03;94268.09;6137779;28;109268;-59
2023/03/06 13:58:49;;;;;;;4.10;3.80;;;;;;;21.52;33.22;94259.97;6137409;28;109389;-59
2023/03/06 14:02:03;;;;;;;4.63;4.23;;;;;;;21.53;32.98;94260.75;6126373;28;109611;-59
2023/03/06 14:05:12;;;;;;;4.50;4.20;;;;;;;21.52;32.94;94259.97;6136997;28;109989;-59
2023/03/06 14:08:17;;;;;;;4.20;3.90;;;;;;;21.52;32.77;94257.31;6137700;28;109541;-59
2023/03/06 14:11:22;;;;;;;4.70;4.40;;;;;;;21.50;33.20;94259.47;6137310;28;109313;-60
2023/03/06 14:14:33;;;;;;;4.00;3.70;;;;;;;21.50;32.86;94256.03;6128050;28;110351;-58
2023/03/06 14:17:37;;;;;;;4.07;3.77;;;;;;;21.48;32.70;94255.59;6136465;28;108989;-59
2023/03/06 14:20:43;;;;;;;4.07;3.77;;;;;;;21.51;33.14;94274.38;6137311;28;109105;-59
2023/03/06 14:23:46;;;;;;;4.30;4.00;;;;;;;21.51;32.78;94263.72;6127278;28;110315;-60